createdAt,value
2022-12-06T00:02:12.415Z,76.06
2022-12-06T00:04:39.204Z,75.75
2022-12-06T00:07:06.087Z,74.85
2022-12-06T00:09:33.015Z,74.71
2022-12-06T00:11:59.639Z,74.99
2022-12-06T00:14:26.283Z,73.97
2022-12-06T00:16:53.061Z,74.23
2022-12-06T00:19:22.261Z,73.63
2022-12-06T00:21:48.859Z,74.10
2022-12-06T00:24:20.503Z,74.45
2022-12-06T00:26:48.179Z,74.89
2022-12-06T00:29:16.352Z,75.16
2022-12-06T00:31:43.123Z,74.78
2022-12-06T00:34:09.741Z,75.71
2022-12-06T00:36:37.634Z,75.48
2022-12-06T00:39:14.324Z,75.58
2022-12-06T00:41:41.682Z,75.89
2022-12-06T00:44:08.747Z,75.64
2022-12-06T00:46:36.174Z,75.21
2022-12-06T00:49:03.832Z,75.17
2022-12-06T00:51:31.235Z,75.03
2022-12-06T00:53:58.427Z,74.80
2022-12-06T00:56:25.346Z,74.30
2022-12-06T00:58:51.877Z,74.35
2022-12-06T01:01:20.958Z,74.17
2022-12-06T01:03:50.915Z,74.58
2022-12-06T01:06:18.317Z,74.78
2022-12-06T01:08:44.900Z,74.73
2022-12-06T01:11:12.916Z,75.39
2022-12-06T01:13:40.131Z,74.88
2022-12-06T01:16:06.882Z,74.28
2022-12-06T01:18:33.458Z,74.94
2022-12-06T01:21:06.859Z,74.47
2022-12-06T01:23:33.923Z,74.05
2022-12-06T01:26:00.462Z,74.01
2022-12-06T01:28:27.145Z,73.75
2022-12-06T01:30:53.843Z,73.68
2022-12-06T01:33:20.367Z,73.31
2022-12-06T01:35:46.970Z,72.91
2022-12-06T01:38:13.490Z,72.20
2022-12-06T01:40:41.611Z,72.03
2022-12-06T01:43:28.003Z,72.44
2022-12-06T01:45:54.950Z,72.81
2022-12-06T01:48:23.951Z,72.94
2022-12-06T01:50:51.383Z,72.73
2022-12-06T01:53:24.072Z,72.71
2022-12-06T01:55:53.045Z,73.02
2022-12-06T01:58:24.581Z,72.96
2022-12-06T02:00:51.362Z,73.14
2022-12-06T02:03:23.503Z,73.43
2022-12-06T02:05:50.203Z,73.49
2022-12-06T02:08:17.253Z,73.81
2022-12-06T02:10:44.128Z,74.24
2022-12-06T02:13:10.821Z,74.20
2022-12-06T02:15:44.327Z,74.09
2022-12-06T02:18:16.389Z,74.16
2022-12-06T02:20:58.909Z,74.25
2022-12-06T02:23:28.383Z,74.38
2022-12-06T02:26:14.545Z,74.66
2022-12-06T02:28:44.147Z,74.92
2022-12-06T02:31:37.005Z,75.17
2022-12-06T02:34:09.490Z,75.50
2022-12-06T02:36:48.302Z,76.01
2022-12-06T02:39:18.117Z,76.32
2022-12-06T02:41:51.212Z,76.81
2022-12-06T02:44:28.324Z,77.47
2022-12-06T02:46:56.247Z,77.83
2022-12-06T02:49:25.421Z,78.50
2022-12-06T02:51:54.199Z,78.50
2022-12-06T02:54:21.993Z,78.23
2022-12-06T02:56:48.599Z,77.85
2022-12-06T02:59:15.137Z,77.98
2022-12-06T03:01:45.134Z,78.52
2022-12-06T03:04:33.466Z,78.37
2022-12-06T03:07:09.505Z,77.29
2022-12-06T03:09:44.384Z,77.59
2022-12-06T03:12:16.898Z,77.69
2022-12-06T03:14:48.478Z,78.00
2022-12-06T03:17:18.472Z,77.58
2022-12-06T03:19:48.529Z,77.48
2022-12-06T03:22:20.184Z,77.29
2022-12-06T03:24:46.771Z,77.14
2022-12-06T03:27:15.526Z,77.65
2022-12-06T03:29:47.019Z,77.24
2022-12-06T03:32:16.538Z,77.51
2022-12-06T03:34:44.342Z,77.49
2022-12-06T03:37:14.275Z,77.54
2022-12-06T03:39:47.210Z,78.02
2022-12-06T03:42:14.063Z,78.28
2022-12-06T03:44:40.801Z,78.75
2022-12-06T03:47:07.427Z,78.62
2022-12-06T03:49:52.820Z,79.00
2022-12-06T03:52:19.729Z,79.79
2022-12-06T03:54:46.244Z,79.72
2022-12-06T03:57:13.682Z,79.58
2022-12-06T03:59:40.338Z,79.06
2022-12-06T04:02:07.470Z,78.82
2022-12-06T04:04:34.213Z,78.92
2022-12-06T04:07:00.848Z,78.78
2022-12-06T04:09:45.856Z,78.63
2022-12-06T04:12:31.187Z,78.82
2022-12-06T04:14:57.940Z,79.26
2022-12-06T04:17:43.049Z,78.85
2022-12-06T04:20:09.832Z,78.97
2022-12-06T04:22:55.192Z,79.02
2022-12-06T04:25:21.851Z,78.81
2022-12-06T04:28:07.323Z,78.34
2022-12-06T04:30:52.668Z,78.29
2022-12-06T04:33:37.626Z,78.13
2022-12-06T04:36:23.291Z,77.87
2022-12-06T04:38:49.921Z,78.01
2022-12-06T04:41:36.777Z,78.02
2022-12-06T04:44:03.778Z,78.63
2022-12-06T04:46:30.824Z,78.02
2022-12-06T04:48:57.640Z,78.28
2022-12-06T04:51:24.566Z,78.31
2022-12-06T04:53:51.294Z,78.18
2022-12-06T04:56:17.878Z,78.11
2022-12-06T04:58:45.219Z,78.29
2022-12-06T05:01:11.890Z,78.11
2022-12-06T05:03:43.969Z,78.63
2022-12-06T05:06:11.093Z,78.77
2022-12-06T05:08:37.911Z,78.44
2022-12-06T05:11:04.529Z,78.31
2022-12-06T05:13:31.171Z,77.82
2022-12-06T05:15:59.399Z,78.19
2022-12-06T05:18:26.716Z,78.07
2022-12-06T05:21:02.658Z,77.98
2022-12-06T05:23:29.712Z,77.33
2022-12-06T05:26:03.935Z,76.98
2022-12-06T05:28:30.996Z,76.98
2022-12-06T05:30:57.615Z,76.83
2022-12-06T05:33:24.764Z,76.60
2022-12-06T05:35:51.568Z,76.40
2022-12-06T05:38:18.532Z,76.37
2022-12-06T05:40:45.365Z,76.49
2022-12-06T05:43:11.906Z,76.61
2022-12-06T05:45:38.654Z,77.04
2022-12-06T05:48:05.978Z,77.06
2022-12-06T05:50:33.179Z,77.57
2022-12-06T05:53:00.399Z,77.86
2022-12-06T05:55:27.843Z,77.39
2022-12-06T05:57:54.954Z,77.07
2022-12-06T06:00:21.643Z,76.72
2022-12-06T06:02:49.354Z,76.67
2022-12-06T06:05:16.549Z,76.66
2022-12-06T06:07:43.213Z,76.79
2022-12-06T06:10:10.328Z,76.63
2022-12-06T06:12:36.853Z,76.03
2022-12-06T06:15:06.453Z,75.62
2022-12-06T06:17:33.777Z,75.81
2022-12-06T06:20:04.983Z,75.21
2022-12-06T06:22:33.284Z,74.88
2022-12-06T06:25:00.782Z,74.44
2022-12-06T06:27:28.047Z,73.68
2022-12-06T06:29:54.584Z,72.93
2022-12-06T06:32:21.185Z,72.03
2022-12-06T06:34:47.740Z,71.35
2022-12-06T06:37:14.455Z,71.18
2022-12-06T06:39:41.030Z,70.83
2022-12-06T06:42:07.568Z,71.10
2022-12-06T06:44:34.114Z,70.61
2022-12-06T06:47:00.777Z,69.81
2022-12-06T06:49:27.314Z,69.69
2022-12-06T06:51:53.908Z,70.25
2022-12-06T06:54:20.507Z,70.30
2022-12-06T06:56:48.933Z,70.22
2022-12-06T06:59:15.493Z,70.42
2022-12-06T07:01:42.578Z,70.74
2022-12-06T07:04:09.151Z,70.50
2022-12-06T07:06:35.924Z,70.19
2022-12-06T07:09:03.737Z,70.12
2022-12-06T07:11:30.343Z,70.90
2022-12-06T07:13:56.969Z,71.09
2022-12-06T07:16:23.635Z,71.06
2022-12-06T07:18:50.289Z,71.14
2022-12-06T07:21:17.413Z,70.62
2022-12-06T07:23:43.933Z,70.58
2022-12-06T07:26:15.764Z,70.55
2022-12-06T07:28:43.468Z,70.55
2022-12-06T07:31:18.321Z,70.94
2022-12-06T07:33:45.920Z,70.77
2022-12-06T07:36:14.290Z,70.60
2022-12-06T07:38:42.496Z,71.04
2022-12-06T07:41:29.357Z,70.17
2022-12-06T07:44:15.401Z,70.45
2022-12-06T07:46:42.451Z,69.93
2022-12-06T07:49:09.502Z,69.54
2022-12-06T07:51:36.604Z,69.45
2022-12-06T07:54:03.290Z,69.55
2022-12-06T07:56:29.864Z,69.39
2022-12-06T07:58:56.435Z,69.65
2022-12-06T08:01:23.241Z,69.41
2022-12-06T08:03:49.975Z,69.05
2022-12-06T08:06:16.837Z,68.87
2022-12-06T08:08:43.371Z,68.58
2022-12-06T08:11:10.121Z,68.46
2022-12-06T08:13:37.272Z,68.11
2022-12-06T08:16:04.974Z,68.32
2022-12-06T08:18:31.534Z,68.20
2022-12-06T08:20:58.816Z,68.53
2022-12-06T08:23:33.634Z,68.42
2022-12-06T08:26:01.927Z,67.73
2022-12-06T08:28:29.148Z,67.76
2022-12-06T08:31:02.744Z,67.48
2022-12-06T08:33:31.765Z,67.37
2022-12-06T08:35:58.603Z,67.12
2022-12-06T08:38:25.244Z,66.67
2022-12-06T08:40:51.985Z,66.67
2022-12-06T08:43:18.750Z,66.38
2022-12-06T08:45:49.613Z,66.22
2022-12-06T08:48:16.294Z,66.87
2022-12-06T08:50:43.136Z,67.46
2022-12-06T08:53:09.595Z,67.67
2022-12-06T08:55:36.054Z,68.21
2022-12-06T08:58:02.841Z,68.83
2022-12-06T09:00:29.505Z,69.72
2022-12-06T09:02:56.411Z,69.09
2022-12-06T09:05:23.061Z,69.03
2022-12-06T09:07:49.754Z,68.85
2022-12-06T09:10:18.658Z,68.27
2022-12-06T09:12:45.342Z,67.96
2022-12-06T09:15:11.954Z,67.96
2022-12-06T09:17:38.796Z,67.42
2022-12-06T09:20:06.501Z,67.17
2022-12-06T09:22:33.333Z,66.83
2022-12-06T09:24:59.971Z,66.81
2022-12-06T09:27:29.303Z,67.34
2022-12-06T09:29:55.881Z,67.50
2022-12-06T09:32:22.575Z,67.51
2022-12-06T09:34:49.274Z,67.21
2022-12-06T09:37:16.196Z,67.22
2022-12-06T09:39:48.267Z,66.68
2022-12-06T09:42:32.862Z,66.18
2022-12-06T09:45:24.241Z,66.96
2022-12-06T09:47:53.644Z,66.62
2022-12-06T09:50:20.377Z,66.72
2022-12-06T09:52:46.912Z,66.54
2022-12-06T09:55:21.639Z,66.44
2022-12-06T09:57:48.379Z,65.76
2022-12-06T10:00:22.341Z,65.30
2022-12-06T10:03:18.299Z,64.90
2022-12-06T10:05:52.053Z,64.01
2022-12-06T10:08:18.986Z,64.24
2022-12-06T10:10:48.859Z,63.67
2022-12-06T10:13:35.894Z,63.85
2022-12-06T10:16:07.051Z,64.00
2022-12-06T10:18:46.120Z,63.99
2022-12-06T10:21:15.621Z,64.18
2022-12-06T10:24:02.106Z,63.59
2022-12-06T10:26:28.930Z,63.74
2022-12-06T10:28:55.572Z,64.33
2022-12-06T10:31:24.298Z,64.57
2022-12-06T10:33:54.680Z,64.81
2022-12-06T10:36:42.547Z,63.94
2022-12-06T10:39:45.972Z,63.78
2022-12-06T10:42:30.455Z,64.15
2022-12-06T10:45:01.697Z,63.89
2022-12-06T10:47:32.519Z,63.79
2022-12-06T10:50:05.474Z,64.32
2022-12-06T10:52:46.126Z,64.73
2022-12-06T10:55:25.216Z,64.19
2022-12-06T10:57:57.515Z,64.90
2022-12-06T11:00:25.092Z,65.33
2022-12-06T11:02:51.640Z,65.67
2022-12-06T11:05:23.485Z,65.67
2022-12-06T11:07:52.581Z,65.45
2022-12-06T11:10:22.682Z,65.70
2022-12-06T11:12:54.444Z,65.94
2022-12-06T11:15:23.952Z,65.71
2022-12-06T11:18:02.505Z,65.21
2022-12-06T11:20:33.552Z,65.73
2022-12-06T11:23:13.611Z,65.35
2022-12-06T11:25:45.406Z,64.66
2022-12-06T11:28:21.354Z,64.64
2022-12-06T11:30:50.018Z,64.32
2022-12-06T11:33:19.787Z,64.10
2022-12-06T11:35:47.090Z,64.08
2022-12-06T11:38:15.017Z,63.98
2022-12-06T11:40:43.470Z,63.84
2022-12-06T11:43:15.128Z,63.71
2022-12-06T11:45:44.703Z,62.43
2022-12-06T11:48:22.405Z,63.41
2022-12-06T11:50:49.791Z,62.63
2022-12-06T11:53:20.042Z,62.57
2022-12-06T11:55:49.000Z,62.19
2022-12-06T11:58:26.214Z,62.50
2022-12-06T12:01:01.236Z,62.42
2022-12-06T12:03:29.547Z,63.29
2022-12-06T12:06:19.736Z,62.90
2022-12-06T12:09:04.596Z,62.79
2022-12-06T12:11:33.980Z,63.17
2022-12-06T12:14:01.771Z,63.52
2022-12-06T12:16:32.544Z,63.41
2022-12-06T12:19:02.285Z,63.33
2022-12-06T12:21:39.884Z,63.62
2022-12-06T12:24:27.305Z,63.45
2022-12-06T12:26:53.825Z,63.29
2022-12-06T12:29:21.535Z,63.68
2022-12-06T12:31:51.857Z,63.79
2022-12-06T12:34:41.509Z,64.22
2022-12-06T12:37:19.128Z,63.78
2022-12-06T12:39:50.526Z,63.73
2022-12-06T12:42:26.103Z,63.71
2022-12-06T12:44:56.001Z,63.72
2022-12-06T12:47:22.745Z,63.83
2022-12-06T12:50:03.283Z,64.11
2022-12-06T12:52:40.431Z,64.01
2022-12-06T12:55:07.334Z,64.27
2022-12-06T12:57:34.099Z,64.08
2022-12-06T13:00:01.311Z,64.14
2022-12-06T13:02:28.993Z,64.03
2022-12-06T13:05:30.845Z,64.08
2022-12-06T13:07:48.788Z,63.97
2022-12-06T13:10:22.971Z,63.71
2022-12-06T13:12:51.971Z,64.27
2022-12-06T13:15:20.448Z,64.42
2022-12-06T13:17:52.867Z,64.33
2022-12-06T13:20:28.385Z,64.91
2022-12-06T13:22:58.557Z,65.18
2022-12-06T13:25:25.446Z,64.82
2022-12-06T13:27:54.415Z,64.54
2022-12-06T13:30:26.322Z,64.42
2022-12-06T13:33:04.153Z,63.89
2022-12-06T13:35:39.510Z,64.16
2022-12-06T13:38:24.337Z,64.02
2022-12-06T13:40:57.502Z,64.17
2022-12-06T13:43:24.199Z,64.27
2022-12-06T13:45:56.841Z,64.03
2022-12-06T13:48:23.845Z,64.58
2022-12-06T13:50:50.800Z,64.78
2022-12-06T13:53:17.757Z,64.92
2022-12-06T13:55:50.647Z,65.11
2022-12-06T13:58:20.102Z,65.25
2022-12-06T14:00:47.438Z,65.83
2022-12-06T14:03:16.798Z,65.58
2022-12-06T14:08:46.594Z,67.92
2022-12-06T14:11:16.354Z,69.39
2022-12-06T14:14:08.777Z,70.10
2022-12-06T14:16:38.626Z,71.18
2022-12-06T14:19:25.024Z,72.74
2022-12-06T14:21:55.194Z,73.89
2022-12-06T14:24:25.046Z,74.63
2022-12-06T14:26:51.757Z,75.49
2022-12-06T14:29:22.441Z,76.44
2022-12-06T14:31:49.581Z,76.84
2022-12-06T14:34:26.478Z,77.53
2022-12-06T14:36:53.602Z,76.13
2022-12-06T14:39:23.452Z,74.79
2022-12-06T14:42:10.174Z,74.10
2022-12-06T14:44:37.354Z,73.37
2022-12-06T14:47:04.839Z,72.97
2022-12-06T14:49:51.739Z,72.80
2022-12-06T14:52:24.784Z,72.72
2022-12-06T14:54:52.780Z,73.33
2022-12-06T14:57:22.215Z,74.29
2022-12-06T15:02:40.289Z,74.04
2022-12-06T15:05:26.727Z,73.35
2022-12-06T15:07:53.461Z,73.20
2022-12-06T15:10:22.294Z,72.72
2022-12-06T15:12:55.740Z,73.10
2022-12-06T15:15:38.397Z,72.25
2022-12-06T15:18:25.351Z,71.46
2022-12-06T15:20:55.072Z,71.21
2022-12-06T15:23:36.254Z,71.09
2022-12-06T15:26:03.353Z,71.18
2022-12-06T15:28:29.860Z,72.00
2022-12-06T15:30:57.814Z,72.91
2022-12-06T15:33:24.932Z,73.29
2022-12-06T15:35:51.628Z,74.25
2022-12-06T15:38:21.180Z,74.79
2022-12-06T15:40:48.971Z,76.02
2022-12-06T15:43:22.562Z,77.88
2022-12-06T15:45:49.389Z,78.09
2022-12-06T15:48:16.930Z,77.95
2022-12-06T15:50:43.865Z,78.16
2022-12-06T15:53:19.634Z,76.09
2022-12-06T15:55:46.804Z,74.48
2022-12-06T15:58:13.875Z,73.87
2022-12-06T16:00:40.594Z,73.17
2022-12-06T16:03:07.763Z,73.52
2022-12-06T16:05:35.297Z,73.42
2022-12-06T16:08:02.093Z,72.01
2022-12-06T16:10:48.711Z,71.30
2022-12-06T16:13:22.773Z,71.84
2022-12-06T16:15:50.921Z,72.34
2022-12-06T16:18:18.261Z,73.08
2022-12-06T16:20:45.475Z,73.75
2022-12-06T16:23:49.822Z,73.25
2022-12-06T16:26:19.760Z,73.64
2022-12-06T16:28:46.657Z,73.55
2022-12-06T16:31:13.814Z,73.30
2022-12-06T16:33:40.555Z,73.43
2022-12-06T16:36:14.384Z,72.79
2022-12-06T16:38:40.956Z,72.38
2022-12-06T16:41:09.401Z,72.99
2022-12-06T16:43:36.018Z,73.08
2022-12-06T16:46:17.653Z,71.51
2022-12-06T16:48:44.422Z,71.27
2022-12-06T16:51:11.205Z,70.80
2022-12-06T16:53:37.711Z,70.54
2022-12-06T16:56:04.782Z,70.54
2022-12-06T16:58:31.297Z,70.80
2022-12-06T17:00:59.110Z,69.63
2022-12-06T17:03:25.717Z,68.80
2022-12-06T17:05:52.387Z,68.70
2022-12-06T17:08:22.147Z,69.72
2022-12-06T17:11:09.117Z,70.38
2022-12-06T17:13:35.714Z,71.72
2022-12-06T17:16:05.962Z,70.73
2022-12-06T17:18:32.694Z,72.01
2022-12-06T17:20:59.412Z,73.14
2022-12-06T17:23:25.882Z,72.80
2022-12-06T17:25:57.299Z,73.61
2022-12-06T17:28:23.834Z,72.98
2022-12-06T17:30:51.344Z,72.98
2022-12-06T17:33:18.335Z,71.86
2022-12-06T17:35:45.225Z,71.76
2022-12-06T17:38:11.743Z,72.15
2022-12-06T17:40:38.485Z,72.05
2022-12-06T17:43:05.598Z,72.72
2022-12-06T17:45:33.031Z,74.64
2022-12-06T17:48:00.077Z,75.18
2022-12-06T17:50:26.941Z,74.49
2022-12-06T17:52:53.687Z,74.77
2022-12-06T17:55:20.530Z,73.86
2022-12-06T17:57:47.085Z,72.31
2022-12-06T18:00:14.404Z,71.38
2022-12-06T18:02:41.206Z,70.79
2022-12-06T18:05:09.114Z,70.51
2022-12-06T18:07:35.830Z,69.92
2022-12-06T18:10:03.002Z,69.60
2022-12-06T18:12:31.891Z,69.85
2022-12-06T18:15:00.869Z,69.71
2022-12-06T18:17:28.133Z,69.65
2022-12-06T18:19:54.618Z,69.80
2022-12-06T18:22:21.344Z,69.71
2022-12-06T18:24:48.292Z,69.64
2022-12-06T18:27:14.885Z,70.17
2022-12-06T18:29:41.679Z,70.59
2022-12-06T18:32:08.314Z,70.53
2022-12-06T18:34:34.976Z,70.98
2022-12-06T18:37:01.785Z,70.60
2022-12-06T18:39:28.387Z,71.12
2022-12-06T18:41:54.975Z,70.50
2022-12-06T18:44:21.811Z,69.45
2022-12-06T18:46:48.550Z,69.53
2022-12-06T18:49:15.470Z,70.03
2022-12-06T18:51:42.082Z,69.55
2022-12-06T18:54:10.246Z,69.30
2022-12-06T18:56:36.981Z,69.18
2022-12-06T18:59:05.464Z,69.40
2022-12-06T19:01:33.703Z,69.21
2022-12-06T19:04:02.352Z,69.83
2022-12-06T19:06:31.829Z,71.08
2022-12-06T19:09:00.183Z,70.80
2022-12-06T19:11:26.644Z,71.18
2022-12-06T19:13:55.208Z,71.76
2022-12-06T19:16:26.043Z,71.30
2022-12-06T19:18:57.825Z,72.38
2022-12-06T19:21:25.059Z,71.40
2022-12-06T19:23:55.896Z,70.77
2022-12-06T19:26:23.353Z,71.91
2022-12-06T19:28:50.193Z,73.17
2022-12-06T19:31:17.408Z,72.71
2022-12-06T19:33:45.771Z,71.38
2022-12-06T19:36:19.747Z,71.06
2022-12-06T19:38:46.468Z,71.38
2022-12-06T19:41:14.925Z,71.01
2022-12-06T19:44:00.204Z,69.91
2022-12-06T19:46:28.452Z,70.45
2022-12-06T19:48:56.016Z,71.75
2022-12-06T19:51:23.027Z,72.48
2022-12-06T19:53:49.606Z,72.68
2022-12-06T19:56:16.517Z,71.35
2022-12-06T19:58:43.661Z,71.86
2022-12-06T20:01:12.935Z,72.16
2022-12-06T20:03:39.824Z,72.81
2022-12-06T20:06:07.970Z,72.22
2022-12-06T20:08:37.068Z,72.16
2022-12-06T20:11:04.737Z,71.58
2022-12-06T20:13:31.746Z,70.18
2022-12-06T20:16:02.067Z,71.25
2022-12-06T20:18:30.038Z,71.26
2022-12-06T20:20:57.694Z,71.40
2022-12-06T20:23:24.536Z,69.52
2022-12-06T20:25:55.538Z,69.02
2022-12-06T20:28:22.216Z,68.31
2022-12-06T20:30:48.849Z,68.23
2022-12-06T20:33:15.607Z,68.36
2022-12-06T20:35:42.390Z,68.40
2022-12-06T20:38:09.117Z,68.27
2022-12-06T20:40:35.682Z,68.53
2022-12-06T20:43:02.224Z,68.48
2022-12-06T20:45:28.682Z,67.60
2022-12-06T20:47:55.415Z,66.96
2022-12-06T20:50:22.149Z,67.48
2022-12-06T20:52:49.037Z,67.85
2022-12-06T20:55:15.732Z,67.25
2022-12-06T20:57:42.423Z,66.70
2022-12-06T21:00:11.090Z,66.60
2022-12-06T21:02:38.240Z,66.14
2022-12-06T21:05:05.253Z,66.06
2022-12-06T21:07:31.807Z,66.01
2022-12-06T21:09:58.592Z,66.18
2022-12-06T21:12:25.506Z,66.88
2022-12-06T21:14:52.078Z,67.06
2022-12-06T21:17:18.625Z,66.48
2022-12-06T21:19:45.280Z,66.72
2022-12-06T21:22:11.949Z,66.78
2022-12-06T21:24:39.316Z,66.95
2022-12-06T21:27:05.803Z,67.50
2022-12-06T21:29:32.372Z,68.31
2022-12-06T21:32:00.042Z,68.06
2022-12-06T21:34:26.579Z,68.69
2022-12-06T21:36:53.068Z,68.70
2022-12-06T21:39:19.833Z,69.77
2022-12-06T21:41:46.339Z,70.14
2022-12-06T21:44:13.022Z,70.41
2022-12-06T21:46:39.622Z,69.84
2022-12-06T21:49:06.657Z,68.69
2022-12-06T21:51:33.222Z,68.08
2022-12-06T21:53:59.757Z,68.38
2022-12-06T21:56:28.366Z,68.12
2022-12-06T21:58:55.338Z,67.23
2022-12-06T22:01:23.481Z,67.19
2022-12-06T22:03:51.501Z,67.48
2022-12-06T22:06:18.446Z,66.69
2022-12-06T22:08:45.791Z,66.69
2022-12-06T22:11:13.660Z,69.35
2022-12-06T22:13:40.156Z,71.43
2022-12-06T22:16:08.647Z,72.88
2022-12-06T22:18:39.849Z,71.97
2022-12-06T22:21:12.699Z,71.23
2022-12-06T22:23:39.437Z,70.99
2022-12-06T22:26:07.406Z,69.43
2022-12-06T22:28:34.214Z,69.66
2022-12-06T22:31:17.848Z,69.80
2022-12-06T22:33:45.233Z,69.74
2022-12-06T22:36:12.761Z,69.48
2022-12-06T22:38:39.647Z,69.05
2022-12-06T22:41:06.999Z,69.69
2022-12-06T22:43:33.897Z,70.00
2022-12-06T22:46:11.071Z,69.04
2022-12-06T22:48:37.816Z,68.34
2022-12-06T22:51:10.737Z,67.66
2022-12-06T22:53:38.245Z,67.75
2022-12-06T22:56:05.049Z,67.56
2022-12-06T22:58:31.673Z,67.29
2022-12-06T23:00:58.516Z,66.35
2022-12-06T23:03:25.041Z,67.08
2022-12-06T23:05:58.752Z,67.86
2022-12-06T23:08:26.054Z,67.51
2022-12-06T23:11:04.373Z,67.10
2022-12-06T23:13:31.155Z,67.29
2022-12-06T23:15:58.823Z,67.34
2022-12-06T23:18:26.177Z,68.00
2022-12-06T23:21:03.165Z,69.55
2022-12-06T23:23:29.970Z,72.12
2022-12-06T23:26:00.419Z,70.83
2022-12-06T23:28:27.133Z,71.23
2022-12-06T23:30:53.831Z,71.92
2022-12-06T23:33:22.784Z,72.66
2022-12-06T23:35:49.689Z,72.55
2022-12-06T23:38:16.370Z,75.87
2022-12-06T23:40:42.882Z,77.62
2022-12-06T23:43:09.404Z,79.26
2022-12-06T23:45:35.999Z,80.01
2022-12-06T23:48:02.713Z,78.49
2022-12-06T23:50:29.546Z,77.73
2022-12-06T23:52:56.223Z,76.94
2022-12-06T23:55:22.919Z,76.23
2022-12-06T23:57:49.560Z,75.76
